ジョン・F・ケネディ国際空港の過去48時間の天気

ジョン・F・ケネディ国際空港 (New York, Kennedy International Airport)

現在時刻: 3/23 06:21 EDT (3/23 10:21 UTC) 以下の時間は現地時間です。

過去48時間のMETAR気象情報
時間 風向 風速(m/s) 視程 気温(℃) 湿度(%) 気圧(hPa) 天気現象
23 05:51 北西 4 10km以上 -4.4 41 1034.1
23 04:51 北西 5 10km以上 -4.4 41 1033.2
23 03:51 北北西 6 10km以上 -4.4 41 1032.5
23 02:51 北北西 7 10km以上 -4.4 40 1032.4
23 01:51 北北西 7 10km以上 -4.4 34 1032.1
23 00:51 北北西 8 10km以上 -4.4 31 1031.9
22 23:51 北西 8 10km以上 -3.9 29 1031.3
22 22:51 北北西 10 10km以上 -3.3 24 1030.6
22 21:51 北北西 12 10km以上 -2.8 22 1029.9
22 20:51 北西 11 10km以上 -1.7 21 1029.1
22 19:51 北北西 9 10km以上 -1.1 18 1027.5
22 18:51 北北西 11 10km以上 0 21 1026.1
22 17:51 北西 12 10km以上 0.6 20 1024.9
22 16:51 北北西 11 10km以上 1.7 19 1023.5
22 15:51 北西 12 10km以上 2.8 17 1022.7
22 14:51 北西 13 10km以上 2.8 17 1021.9
22 13:51 北西 12 10km以上 2.2 20 1021.7
22 12:51 北北西 14 10km以上 2.2 22 1021.6
22 11:51 北西 13 10km以上 2.8 28 1020.4
22 10:51 北西 12 10km以上 3.9 36 1019.1
22 09:51 西北西 14 10km以上 3.3 32 1017.8
22 08:51 西北西 13 10km以上 3.9 30 1016.3
22 07:51 西北西 10 10km以上 3.9 41 1015.6
22 06:51 北西 11 10km以上 4.4 39 1014.7
22 05:51 北西 13 10km以上 5.6 41 1013.5
22 04:51 北西 9 10km以上 6.7 45 1012.2
22 03:51 北西 8 10km以上 8.9 30 1011.6
22 02:51 北西 3 10km以上 8.3 29 1011.4
22 01:51 北北西 2 10km以上 9.4 27 1011.6
22 00:51 4 10km以上 10 28 1011.6
21 23:51 5 10km以上 11.7 35 1011.3
21 22:51 西 4 10km以上 12.2 50 1011.5
21 21:51 西 3 10km以上 12.8 47 1011.8
21 20:51 西 5 10km以上 12.2 43 1011.7
21 19:51 南南西 4 10km以上 8.3 74 1011.1
21 18:51 6 10km以上 8.9 63 1010.7
21 17:51 5 10km以上 11.1 52 1010.3
21 16:51 南南西 6 10km以上 13.3 43 1010.2
21 15:51 南西 7 10km以上 13.3 38 1011.1
21 14:51 南西 6 10km以上 12.8 38 1011.7
21 13:51 南西 6 10km以上 12.2 40 1012.4
21 12:51 南西 5 10km以上 11.7 41 1013
21 11:51 西南西 4 10km以上 11.1 36 1013.5
21 10:51 西南西 3 10km以上 10 36 1013.7
21 09:51 西南西 4 10km以上 8.9 40 1013.7
21 08:51 西南西 3 10km以上 7.2 53 1013.9
21 07:51 3 10km以上 6.1 62 1013.8
21 06:51 4 10km以上 6.7 47 1013.4
KJFK 230951Z 31007KT 10SM CLR M04/M16 A3054 RMK AO2 SLP341 T10441156
KJFK 230851Z 32009KT 10SM CLR M04/M16 A3051 RMK AO2 SLP332 T10441156 53010
KJFK 230751Z 33012KT 10SM CLR M04/M16 A3049 RMK AO2 SLP325 T10441156
KJFK 230651Z 33014KT 10SM CLR M04/M16 A3049 RMK AO2 SLP324 T10441161
KJFK 230551Z 33014KT 10SM CLR M04/M18 A3048 RMK AO2 SLP321 T10441178 11011 21044 51015
KJFK 230451Z 33015G24KT 10SM CLR M04/M19 A3047 RMK AO2 PK WND 34029/0437 SLP319 T10441189 401001044
KJFK 230351Z 32016G24KT 10SM CLR M04/M19 A3046 RMK AO2 PK WND 32028/0322 SLP313 T10391194
KJFK 230251Z 33019KT 10SM CLR M03/M21 A3044 RMK AO2 PK WND 34030/0156 SLP306 T10331211 51031
KJFK 230151Z 33024G30KT 10SM CLR M03/M22 A3042 RMK AO2 PK WND 33034/0055 SLP299 T10281217
KJFK 230051Z 32021G29KT 10SM CLR M02/M21 A3039 RMK AO2 PK WND 33030/0012 SLP291 T10171211
KJFK 222351Z 34018G27KT 10SM CLR M01/M22 A3034 RMK AO2 PK WND 32036/2331 SLP275 T10111222 10028 21011 52040
KJFK 222251Z 34022G33KT 10SM CLR 00/M20 A3030 RMK AO2 PK WND 33033/2246 SLP261 T00001200
KJFK 222151Z 31024G31KT 10SM CLR 01/M20 A3027 RMK AO2 PK WND 34037/2108 SLP249 T00061200
KJFK 222051Z 33022G32KT 10SM CLR 02/M19 A3023 RMK AO2 PK WND 33039/2025 SLP235 T00171194 53018
KJFK 221951Z 31023G31KT 10SM CLR 03/M20 A3020 RMK AO2 PK WND 31036/1908 SLP227 T00281200
KJFK 221851Z 32025G38KT 10SM CLR 03/M20 A3018 RMK AO2 PK WND 31039/1803 SLP219 T00281200
KJFK 221751Z 31023G31KT 10SM FEW060 02/M18 A3017 RMK AO2 PK WND 32039/1736 SLP217 T00221183 10044 20017 51026
KJFK 221651Z 33027G36KT 10SM FEW060 02/M17 A3017 RMK AO2 PK WND 32040/1632 SLP216 T00221172
KJFK 221551Z 32025G32KT 10SM FEW055 03/M14 A3014 RMK AO2 PK WND 32040/1524 SLP204 T00281139
KJFK 221451Z 32024G31KT 10SM SCT055 04/M10 A3010 RMK AO2 PK WND 32036/1354 SLP191 T00391100 53035
KJFK 221351Z 30028G36KT 10SM FEW060 FEW250 03/M12 A3006 RMK AO2 PK WND 30046/1319 SLP178 T00331117
KJFK 221251Z 30025G37KT 10SM FEW060 FEW250 04/M12 A3001 RMK AO2 PK WND 32041/1241 SLP163 T00391122
KJFK 221151Z 30020G31KT 10SM SCT055 SCT250 04/M08 A2999 RMK AO2 PK WND 30031/1151 SLP156 T00391083 10094 20039 51034
KJFK 221051Z 31022G29KT 10SM FEW055 FEW250 04/M08 A2997 RMK AO2 PK WND 32033/0954 SLP147 T00441083
KJFK 220951Z 32025G35KT 10SM FEW250 06/M07 A2993 RMK AO2 PK WND 32035/0950 SLP135 T00561067
KJFK 220851Z 31017G21KT 10SM FEW220 07/M04 A2989 RMK AO2 SLP122 T00671044 53006
KJFK 220751Z 32016KT 10SM FEW220 09/M08 A2988 RMK AO2 SLP116 T00891078
KJFK 220651Z 31005KT 10SM FEW060 FEW220 08/M09 A2987 RMK AO2 SLP114 T00831089
KJFK 220551Z 34004KT 10SM SCT060 OVC200 09/M09 A2987 RMK AO2 SLP116 T00941089 10128 20078 53001
KJFK 220451Z 36008KT 10SM BKN060 OVC170 10/M08 A2987 RMK AO2 SLP116 T01001078 401390056
KJFK 220351Z 01010KT 10SM BKN060 OVC170 12/M03 A2987 RMK AO2 SLP113 T01171033
KJFK 220251Z 26008KT 10SM BKN065 OVC220 12/02 A2987 RMK AO2 SLP115 T01220022 50004
KJFK 220151Z 28006KT 10SM BKN060 OVC220 13/02 A2988 RMK AO2 SLP118 T01280017
KJFK 220051Z 26009KT 10SM SCT075 BKN230 12/00 A2988 RMK AO2 SLP117 T01220000
KJFK 212351Z 21008KT 10SM FEW065 BKN250 08/04 A2986 RMK AO2 SLP111 T00830039 10139 20078 53009
KJFK 212251Z 19012KT 10SM FEW065 BKN260 09/02 A2985 RMK AO2 SLP107 T00890022
KJFK 212151Z 19010KT 10SM FEW065 BKN260 11/02 A2984 RMK AO2 SLP103 T01110017
KJFK 212051Z 20011KT 10SM FEW065 SCT270 13/01 A2983 RMK AO2 SLP102 T01330011 58021
KJFK 211951Z 22013KT 10SM FEW065 SCT270 13/M01 A2986 RMK AO2 SLP111 T01331006
KJFK 211851Z 23011KT 10SM FEW065 BKN270 13/M01 A2988 RMK AO2 SLP117 T01281011
KJFK 211751Z 23011KT 10SM FEW065 BKN300 12/M01 A2990 RMK AO2 SLP124 T01221011 10128 20056 58014
KJFK 211651Z 22009KT 10SM BKN065 12/M01 A2992 RMK AO2 SLP130 T01171011
KJFK 211551Z 24008KT 10SM BKN070 BKN320 11/M03 A2993 RMK AO2 SLP135 T01111033
KJFK 211451Z 25005KT 10SM BKN070 BKN320 10/M04 A2994 RMK AO2 SLP137 T01001044 58001
KJFK 211351Z 25007KT 10SM BKN065 BKN120 BKN320 09/M04 A2994 RMK AO2 SLP137 T00891039
KJFK 211251Z 25005KT 10SM BKN060 BKN140 07/M02 A2994 RMK AO2 SLP139 T00721017
KJFK 211151Z 19005KT 10SM OVC065 06/M01 A2994 RMK AO2 SLP138 T00611006 10083 20061 53002
KJFK 211051Z 35007KT 10SM BKN070 OVC150 07/M04 A2993 RMK AO2 SLP134 T00671039